Time;durP1;ratioP1;P1;durP2;ratioP2;P2;SDS_P1;SDS_P2;PMS_P1;PMS_P2;Temp;Humidity;BMP_temperature;BMP_pressure;BME280_temperature;BME280_humidity;BME280_pressure;Samples;Min_cycle;Max_cycle;Signal;HPM_P1;HPM_P2
2021/08/08 00:01:46;;;;;;;1.27;0.65;;;;;;;;;;5120482;28;20050;-81
2021/08/08 00:04:13;;;;;;;1.50;0.47;;;;;;;;;;5120201;28;20055;-80
2021/08/08 00:06:42;;;;;;;0.98;0.40;;;;;;;;;;5119197;28;20054;-80
2021/08/08 00:09:09;;;;;;;1.40;0.57;;;;;;;;;;5115291;28;20063;-81
2021/08/08 00:11:36;;;;;;;0.77;0.40;;;;;;;;;;5115416;28;20051;-79
2021/08/08 00:14:03;;;;;;;1.48;0.50;;;;;;;;;;5097079;28;20058;-80
2021/08/08 00:16:30;;;;;;;1.38;0.57;;;;;;;;;;5096038;28;20412;-80
2021/08/08 00:18:57;;;;;;;0.80;0.40;;;;;;;;;;5096645;28;20060;-80
2021/08/08 00:21:25;;;;;;;1.85;0.70;;;;;;;;;;5097637;28;20048;-80
2021/08/08 00:23:53;;;;;;;1.55;0.60;;;;;;;;;;5097395;28;20046;-80
2021/08/08 00:26:20;;;;;;;0.68;0.40;;;;;;;;;;5095739;28;20040;-79
2021/08/08 00:28:48;;;;;;;1.10;0.40;;;;;;;;;;5096433;28;20048;-80
2021/08/08 00:31:16;;;;;;;1.20;0.50;;;;;;;;;;5096513;28;20531;-80
2021/08/08 00:33:43;;;;;;;2.60;0.90;;;;;;;;;;5096598;28;20116;-79
2021/08/08 00:36:10;;;;;;;1.30;0.50;;;;;;;;;;5095900;28;20482;-80
2021/08/08 00:38:37;;;;;;;4.78;0.85;;;;;;;;;;5096530;28;20052;-79
2021/08/08 00:41:05;;;;;;;1.27;0.50;;;;;;;;;;5096217;28;20059;-81
2021/08/08 00:43:32;;;;;;;1.00;0.47;;;;;;;;;;5096348;28;20052;-80
2021/08/08 00:45:59;;;;;;;1.33;0.60;;;;;;;;;;5095676;28;20497;-80
2021/08/08 00:48:26;;;;;;;1.65;0.60;;;;;;;;;;5095396;28;20044;-79
2021/08/08 00:50:53;;;;;;;1.58;0.43;;;;;;;;;;5094716;28;20044;-79
2021/08/08 00:53:20;;;;;;;0.70;0.40;;;;;;;;;;5096368;28;20044;-80
2021/08/08 00:55:47;;;;;;;1.30;0.43;;;;;;;;;;5095559;28;20093;-81
2021/08/08 00:58:15;;;;;;;1.60;0.50;;;;;;;;;;5095727;28;20101;-80
2021/08/08 01:00:43;;;;;;;1.45;0.40;;;;;;;;;;5096037;28;20056;-81
2021/08/08 01:03:13;;;;;;;1.42;0.50;;;;;;;;;;5075767;28;20040;-80
2021/08/08 01:05:44;;;;;;;1.25;0.63;;;;;;;;;;5075987;28;20102;-80
2021/08/08 01:08:16;;;;;;;1.25;0.50;;;;;;;;;;5079757;28;20053;-81
2021/08/08 01:10:43;;;;;;;1.63;0.40;;;;;;;;;;5079649;28;20047;-79
2021/08/08 01:13:12;;;;;;;1.17;0.40;;;;;;;;;;5107342;28;20063;-79
2021/08/08 01:15:42;;;;;;;0.80;0.40;;;;;;;;;;5119214;28;20047;-80
2021/08/08 01:18:10;;;;;;;1.25;0.90;;;;;;;;;;5119797;28;20048;-80
2021/08/08 01:20:38;;;;;;;1.45;0.50;;;;;;;;;;5120107;28;20096;-80
2021/08/08 01:23:06;;;;;;;1.90;0.47;;;;;;;;;;5120475;28;20059;-80
2021/08/08 01:25:35;;;;;;;2.00;0.60;;;;;;;;;;5119382;28;20515;-81
2021/08/08 01:28:02;;;;;;;1.02;0.50;;;;;;;;;;5119970;28;20420;-81
2021/08/08 01:30:29;;;;;;;1.00;0.43;;;;;;;;;;5119882;28;20515;-80
2021/08/08 01:33:02;;;;;;;2.20;0.50;;;;;;;;;;5119522;28;20040;-80
2021/08/08 01:35:29;;;;;;;1.13;0.50;;;;;;;;;;5119510;28;20075;-80
2021/08/08 01:37:56;;;;;;;1.33;0.55;;;;;;;;;;5119449;28;20177;-81
2021/08/08 01:40:27;;;;;;;1.45;0.40;;;;;;;;;;5119232;28;20397;-80
2021/08/08 01:42:57;;;;;;;1.17;0.50;;;;;;;;;;5119406;28;20454;-80
2021/08/08 01:45:25;;;;;;;1.00;0.50;;;;;;;;;;5118805;28;20054;-79
2021/08/08 01:47:55;;;;;;;1.42;0.43;;;;;;;;;;5119381;28;20070;-80
2021/08/08 01:50:22;;;;;;;1.75;0.60;;;;;;;;;;5119675;28;20332;-80
2021/08/08 01:52:50;;;;;;;0.88;0.47;;;;;;;;;;5119467;28;20496;-80
2021/08/08 01:55:18;;;;;;;0.80;0.50;;;;;;;;;;5118614;28;20047;-80
2021/08/08 01:57:45;;;;;;;0.88;0.38;;;;;;;;;;5119715;28;20059;-80
2021/08/08 02:00:19;;;;;;;0.65;0.40;;;;;;;;;;5119517;28;20048;-81
2021/08/08 02:02:50;;;;;;;0.90;0.40;;;;;;;;;;5102159;28;20054;-80
2021/08/08 02:05:19;;;;;;;1.00;0.40;;;;;;;;;;5098764;28;20087;-80
2021/08/08 02:07:46;;;;;;;1.17;0.40;;;;;;;;;;5098939;28;20055;-81
2021/08/08 02:10:13;;;;;;;1.40;0.50;;;;;;;;;;5098648;28;20051;-81
2021/08/08 02:12:40;;;;;;;0.98;0.43;;;;;;;;;;5108629;28;20047;-81
2021/08/08 02:15:09;;;;;;;0.80;0.45;;;;;;;;;;5119457;28;20046;-81
2021/08/08 02:17:37;;;;;;;1.55;0.52;;;;;;;;;;5118781;28;20518;-81
2021/08/08 02:20:07;;;;;;;1.42;0.60;;;;;;;;;;5119135;28;20401;-81
2021/08/08 02:22:34;;;;;;;1.90;0.50;;;;;;;;;;5118901;28;20054;-81
2021/08/08 02:25:01;;;;;;;2.03;0.50;;;;;;;;;;5119306;28;20040;-80
2021/08/08 02:27:28;;;;;;;0.60;0.50;;;;;;;;;;5119969;28;20051;-81
2021/08/08 02:29:55;;;;;;;1.23;0.40;;;;;;;;;;5120468;28;20047;-80
2021/08/08 02:32:22;;;;;;;1.13;0.40;;;;;;;;;;5120510;28;20096;-81
2021/08/08 02:34:50;;;;;;;1.75;0.60;;;;;;;;;;5118249;28;20051;-80
2021/08/08 02:37:17;;;;;;;1.40;0.60;;;;;;;;;;5123061;28;20120;-80
2021/08/08 02:39:44;;;;;;;2.53;0.40;;;;;;;;;;5119792;27;20051;-81
2021/08/08 02:42:11;;;;;;;1.83;0.32;;;;;;;;;;5119465;28;20055;-81
2021/08/08 02:44:38;;;;;;;1.58;0.50;;;;;;;;;;5118747;28;20051;-81
2021/08/08 02:47:05;;;;;;;0.90;0.40;;;;;;;;;;5119735;28;20492;-81
2021/08/08 02:49:31;;;;;;;1.48;0.40;;;;;;;;;;5118604;28;20054;-80
2021/08/08 02:51:59;;;;;;;1.42;0.55;;;;;;;;;;5119136;28;20450;-81
2021/08/08 02:54:26;;;;;;;0.60;0.40;;;;;;;;;;5119304;28;20408;-81
2021/08/08 02:56:53;;;;;;;1.55;0.60;;;;;;;;;;5118959;28;20055;-79
2021/08/08 02:59:20;;;;;;;0.73;0.43;;;;;;;;;;5120977;28;20043;-80
2021/08/08 03:01:47;;;;;;;1.02;0.50;;;;;;;;;;5110748;28;20055;-81
2021/08/08 03:04:13;;;;;;;1.50;0.55;;;;;;;;;;5099185;28;20056;-81
2021/08/08 03:06:45;;;;;;;1.40;0.52;;;;;;;;;;5099362;28;20051;-80
2021/08/08 03:09:14;;;;;;;1.65;0.60;;;;;;;;;;5108196;28;20044;-80
2021/08/08 03:11:45;;;;;;;0.88;0.40;;;;;;;;;;5108663;28;20474;-81
2021/08/08 03:14:13;;;;;;;1.20;0.50;;;;;;;;;;5119074;28;20051;-81
2021/08/08 03:16:40;;;;;;;1.13;0.50;;;;;;;;;;5116913;28;20561;-81
2021/08/08 03:19:07;;;;;;;1.08;0.50;;;;;;;;;;5117920;28;20048;-79
2021/08/08 03:21:35;;;;;;;1.10;0.50;;;;;;;;;;5116195;28;20058;-79
2021/08/08 03:24:02;;;;;;;1.55;0.95;;;;;;;;;;5116799;28;20048;-80
2021/08/08 03:26:32;;;;;;;1.65;0.50;;;;;;;;;;5117036;28;20050;-80
2021/08/08 03:28:58;;;;;;;1.15;0.40;;;;;;;;;;5116791;28;20052;-78
2021/08/08 03:31:27;;;;;;;1.42;0.57;;;;;;;;;;5124367;28;20052;-81
2021/08/08 03:33:55;;;;;;;1.08;0.57;;;;;;;;;;5126292;28;20048;-81
2021/08/08 03:36:22;;;;;;;1.77;0.50;;;;;;;;;;5125018;28;20047;-81
2021/08/08 03:38:49;;;;;;;1.15;0.57;;;;;;;;;;5127634;28;20126;-81
2021/08/08 03:41:16;;;;;;;1.08;0.50;;;;;;;;;;5129346;28;20111;-82
2021/08/08 03:43:45;;;;;;;1.38;0.50;;;;;;;;;;5128744;28;20043;-81
2021/08/08 03:46:12;;;;;;;1.02;0.40;;;;;;;;;;5126584;28;20074;-81
2021/08/08 03:48:38;;;;;;;0.95;0.50;;;;;;;;;;5128099;28;20052;-81
2021/08/08 03:51:06;;;;;;;0.98;0.40;;;;;;;;;;5126084;28;20054;-81
2021/08/08 03:53:32;;;;;;;0.70;0.50;;;;;;;;;;5126759;28;20052;-80
2021/08/08 03:55:59;;;;;;;2.25;0.52;;;;;;;;;;5126224;28;20047;-81
2021/08/08 03:58:30;;;;;;;0.95;0.47;;;;;;;;;;5127350;28;20050;-81
2021/08/08 04:01:00;;;;;;;0.98;0.50;;;;;;;;;;5124585;28;20071;-82
2021/08/08 04:03:26;;;;;;;1.27;0.50;;;;;;;;;;5106731;28;20074;-81
2021/08/08 04:05:53;;;;;;;1.17;0.60;;;;;;;;;;5105246;28;20048;-81
2021/08/08 04:08:20;;;;;;;1.13;0.60;;;;;;;;;;5105922;28;20047;-82
2021/08/08 04:10:47;;;;;;;0.95;0.50;;;;;;;;;;5105763;28;20066;-81
2021/08/08 04:13:13;;;;;;;1.73;0.80;;;;;;;;;;5120102;28;20048;-81
2021/08/08 04:15:40;;;;;;;1.15;0.65;;;;;;;;;;5131271;28;20028;-81
2021/08/08 04:18:11;;;;;;;1.17;0.57;;;;;;;;;;5129160;28;20055;-82
2021/08/08 04:20:38;;;;;;;1.13;0.60;;;;;;;;;;5127923;28;20048;-81
2021/08/08 04:23:06;;;;;;;1.83;0.50;;;;;;;;;;5126210;28;20040;-82
2021/08/08 04:25:33;;;;;;;0.93;0.50;;;;;;;;;;5115127;28;20105;-81
2021/08/08 04:28:00;;;;;;;1.77;0.95;;;;;;;;;;5115387;28;20056;-82
2021/08/08 04:30:27;;;;;;;0.98;0.50;;;;;;;;;;5115969;28;20070;-82
2021/08/08 04:32:54;;;;;;;1.70;0.80;;;;;;;;;;5118400;28;20055;-81
2021/08/08 04:35:22;;;;;;;2.25;0.60;;;;;;;;;;5120979;28;20055;-81
2021/08/08 04:37:49;;;;;;;1.17;0.50;;;;;;;;;;5116116;28;20047;-82
2021/08/08 04:40:16;;;;;;;1.33;0.52;;;;;;;;;;5116724;28;20048;-81
2021/08/08 04:42:43;;;;;;;1.90;0.57;;;;;;;;;;5121583;28;20411;-82
2021/08/08 04:45:10;;;;;;;1.13;0.55;;;;;;;;;;5124285;28;20058;-82
2021/08/08 04:47:37;;;;;;;1.55;0.60;;;;;;;;;;5121962;28;20056;-82
2021/08/08 04:50:06;;;;;;;0.75;0.40;;;;;;;;;;5123825;28;20055;-80
2021/08/08 04:52:38;;;;;;;1.20;0.55;;;;;;;;;;5121450;28;20470;-81
2021/08/08 04:55:06;;;;;;;1.70;0.65;;;;;;;;;;5122585;28;20067;-81
2021/08/08 04:57:34;;;;;;;1.52;0.63;;;;;;;;;;5121267;28;20048;-80
2021/08/08 05:00:00;;;;;;;3.45;0.68;;;;;;;;;;5120824;28;20051;-82
2021/08/08 05:02:27;;;;;;;1.40;0.47;;;;;;;;;;5106131;28;20105;-79
2021/08/08 05:04:54;;;;;;;1.85;0.90;;;;;;;;;;5098932;28;20066;-81
2021/08/08 05:07:21;;;;;;;4.80;2.80;;;;;;;;;;5100180;28;20420;-81
2021/08/08 05:09:49;;;;;;;2.97;1.20;;;;;;;;;;5099972;28;20044;-80
2021/08/08 05:12:16;;;;;;;2.78;1.35;;;;;;;;;;5105793;28;20209;-80
2021/08/08 05:14:43;;;;;;;1.52;0.90;;;;;;;;;;5119718;28;20073;-79
2021/08/08 05:17:10;;;;;;;3.65;1.35;;;;;;;;;;5120076;28;20047;-81
2021/08/08 05:19:37;;;;;;;1.23;0.88;;;;;;;;;;5120223;27;20431;-81
2021/08/08 05:22:05;;;;;;;1.15;0.73;;;;;;;;;;5120809;28;20507;-80
2021/08/08 05:24:31;;;;;;;1.55;1.00;;;;;;;;;;5120306;28;20466;-80
2021/08/08 05:27:00;;;;;;;2.75;1.10;;;;;;;;;;5117593;28;20135;-81
2021/08/08 05:29:26;;;;;;;3.03;1.10;;;;;;;;;;5124534;28;20059;-81
2021/08/08 05:31:53;;;;;;;1.95;1.00;;;;;;;;;;5138621;28;20035;-81
2021/08/08 05:34:20;;;;;;;2.30;1.00;;;;;;;;;;5133807;28;20048;-81
2021/08/08 05:36:47;;;;;;;9.25;5.20;;;;;;;;;;5130268;28;20081;-82
2021/08/08 05:39:14;;;;;;;10.75;5.03;;;;;;;;;;5137283;28;20058;-81
2021/08/08 05:41:40;;;;;;;11.00;5.97;;;;;;;;;;5130847;28;20071;-82
2021/08/08 05:44:09;;;;;;;4.22;1.73;;;;;;;;;;5130445;28;20044;-82
2021/08/08 05:46:35;;;;;;;4.65;2.25;;;;;;;;;;5129351;28;20051;-82
2021/08/08 05:49:02;;;;;;;4.88;1.30;;;;;;;;;;5130605;28;20054;-81
2021/08/08 05:51:29;;;;;;;2.53;0.80;;;;;;;;;;5129238;28;20039;-82
2021/08/08 05:53:56;;;;;;;1.42;0.70;;;;;;;;;;5129560;28;20048;-83
2021/08/08 05:56:24;;;;;;;1.38;0.70;;;;;;;;;;5128878;28;20050;-81
2021/08/08 05:58:50;;;;;;;3.80;0.80;;;;;;;;;;5129156;28;20055;-81
2021/08/08 06:01:19;;;;;;;1.40;0.80;;;;;;;;;;5123886;28;20067;-81
2021/08/08 06:03:45;;;;;;;2.13;0.70;;;;;;;;;;5108513;28;20394;-81
2021/08/08 06:06:12;;;;;;;1.52;0.55;;;;;;;;;;5107382;28;20052;-81
2021/08/08 06:08:39;;;;;;;1.70;0.73;;;;;;;;;;5107981;28;20044;-81
2021/08/08 06:11:06;;;;;;;1.50;0.80;;;;;;;;;;5107288;28;20052;-81
2021/08/08 06:13:33;;;;;;;1.98;0.60;;;;;;;;;;5124840;28;20044;-81
2021/08/08 06:16:00;;;;;;;1.58;0.80;;;;;;;;;;5126110;28;20055;-80
2021/08/08 06:18:28;;;;;;;3.83;2.10;;;;;;;;;;5123790;28;20059;-82
2021/08/08 06:20:55;;;;;;;1.73;0.82;;;;;;;;;;5116380;28;20074;-81
2021/08/08 06:23:22;;;;;;;1.55;0.70;;;;;;;;;;5116156;28;20496;-80
2021/08/08 06:25:50;;;;;;;2.42;0.82;;;;;;;;;;5116074;28;20046;-82
2021/08/08 06:28:16;;;;;;;3.53;0.80;;;;;;;;;;5116593;28;20048;-81
2021/08/08 06:30:43;;;;;;;1.48;0.70;;;;;;;;;;5116540;28;20047;-81
2021/08/08 06:33:11;;;;;;;2.22;0.80;;;;;;;;;;5116664;28;20504;-81
2021/08/08 06:35:40;;;;;;;1.75;0.80;;;;;;;;;;5118555;28;20122;-81
2021/08/08 06:38:06;;;;;;;2.05;0.80;;;;;;;;;;5116793;28;20047;-81
2021/08/08 06:40:33;;;;;;;1.48;0.68;;;;;;;;;;5116769;28;20054;-82
2021/08/08 06:43:02;;;;;;;1.63;0.70;;;;;;;;;;5117801;28;20439;-81
2021/08/08 06:45:29;;;;;;;5.40;2.72;;;;;;;;;;5117088;28;20454;-81
2021/08/08 06:47:56;;;;;;;1.25;0.70;;;;;;;;;;5117215;28;20492;-80
2021/08/08 06:50:23;;;;;;;1.48;0.70;;;;;;;;;;5117156;28;20100;-81
2021/08/08 06:52:51;;;;;;;1.20;0.68;;;;;;;;;;5116807;28;20043;-82
2021/08/08 06:55:18;;;;;;;2.67;0.75;;;;;;;;;;5116101;28;20077;-81
2021/08/08 06:57:45;;;;;;;1.98;0.80;;;;;;;;;;5116839;28;20425;-81
2021/08/08 07:00:12;;;;;;;4.20;1.02;;;;;;;;;;5117018;28;20044;-82
2021/08/08 07:02:39;;;;;;;2.45;1.02;;;;;;;;;;5099642;28;20412;-82
2021/08/08 07:05:07;;;;;;;1.40;0.63;;;;;;;;;;5095724;28;20048;-81
2021/08/08 07:07:34;;;;;;;1.35;0.70;;;;;;;;;;5096033;28;20048;-82
2021/08/08 07:10:03;;;;;;;1.63;0.60;;;;;;;;;;5096514;28;20459;-81
2021/08/08 07:12:29;;;;;;;2.55;0.77;;;;;;;;;;5104678;28;20063;-81
2021/08/08 07:14:56;;;;;;;2.30;0.70;;;;;;;;;;5116770;28;20669;-81
2021/08/08 07:17:23;;;;;;;2.80;0.80;;;;;;;;;;5117811;28;20052;-82
2021/08/08 07:19:50;;;;;;;2.20;0.90;;;;;;;;;;5118035;28;20039;-80
2021/08/08 07:22:17;;;;;;;2.08;0.90;;;;;;;;;;5117867;28;20055;-80
2021/08/08 07:24:44;;;;;;;3.30;0.95;;;;;;;;;;5126131;28;20062;-81
2021/08/08 07:27:13;;;;;;;1.75;0.70;;;;;;;;;;5118089;28;20039;-81
2021/08/08 07:29:40;;;;;;;2.20;0.85;;;;;;;;;;5118050;28;20496;-81
2021/08/08 07:32:07;;;;;;;2.50;0.90;;;;;;;;;;5117674;28;20064;-81
2021/08/08 07:34:34;;;;;;;2.85;1.08;;;;;;;;;;5118116;28;20039;-81
2021/08/08 07:37:01;;;;;;;2.90;0.85;;;;;;;;;;5116406;28;20511;-82
2021/08/08 07:39:28;;;;;;;2.60;0.88;;;;;;;;;;5116800;28;20404;-81
2021/08/08 07:41:55;;;;;;;3.10;2.00;;;;;;;;;;5117054;28;20040;-81
2021/08/08 07:44:23;;;;;;;5.57;3.80;;;;;;;;;;5116612;28;20044;-81
2021/08/08 07:46:50;;;;;;;2.63;1.00;;;;;;;;;;5115904;28;20047;-81
2021/08/08 07:49:17;;;;;;;1.80;1.35;;;;;;;;;;5116566;28;20051;-82
2021/08/08 07:51:44;;;;;;;1.77;0.90;;;;;;;;;;5121139;28;20062;-80
2021/08/08 07:54:11;;;;;;;3.22;0.98;;;;;;;;;;5133246;28;20054;-80
2021/08/08 07:56:38;;;;;;;3.17;0.90;;;;;;;;;;5120980;28;20051;-81
2021/08/08 07:59:04;;;;;;;2.53;0.75;;;;;;;;;;5116860;28;20629;-81
2021/08/08 08:01:33;;;;;;;2.28;0.70;;;;;;;;;;5109561;28;20048;-81
2021/08/08 08:04:00;;;;;;;2.78;1.05;;;;;;;;;;5095929;28;20072;-82
2021/08/08 08:06:27;;;;;;;0.90;0.80;;;;;;;;;;5095549;28;20044;-81
2021/08/08 08:08:53;;;;;;;1.77;0.73;;;;;;;;;;5095845;28;20058;-81
2021/08/08 08:11:20;;;;;;;2.47;0.80;;;;;;;;;;5096702;28;20044;-81
2021/08/08 08:13:47;;;;;;;1.92;0.85;;;;;;;;;;5114986;28;20058;-81
2021/08/08 08:16:14;;;;;;;1.80;0.75;;;;;;;;;;5115528;28;20048;-81
2021/08/08 08:18:42;;;;;;;2.53;0.90;;;;;;;;;;5117058;28;20058;-82
2021/08/08 08:21:09;;;;;;;2.08;0.63;;;;;;;;;;5116159;28;20044;-80
2021/08/08 08:23:36;;;;;;;2.92;0.80;;;;;;;;;;5116516;28;20052;-81
2021/08/08 08:26:03;;;;;;;1.55;0.75;;;;;;;;;;5115758;28;20047;-81
2021/08/08 08:28:30;;;;;;;2.30;0.80;;;;;;;;;;5116712;28;20462;-81
2021/08/08 08:30:57;;;;;;;1.48;0.70;;;;;;;;;;5117186;28;20086;-82
2021/08/08 08:33:25;;;;;;;1.35;0.70;;;;;;;;;;5116635;28;20124;-80
2021/08/08 08:35:53;;;;;;;3.15;0.65;;;;;;;;;;5115963;28;20072;-81
2021/08/08 08:38:20;;;;;;;2.28;0.70;;;;;;;;;;5116550;28;20043;-80
2021/08/08 08:40:47;;;;;;;2.17;1.00;;;;;;;;;;5116348;28;20047;-81
2021/08/08 08:43:15;;;;;;;3.08;0.70;;;;;;;;;;5115985;28;20496;-81
2021/08/08 08:45:45;;;;;;;1.42;0.60;;;;;;;;;;5116338;28;20057;-82
2021/08/08 08:48:16;;;;;;;1.67;0.68;;;;;;;;;;5116290;28;20408;-82
2021/08/08 08:50:44;;;;;;;1.52;0.63;;;;;;;;;;5116308;28;20048;-82
2021/08/08 08:53:12;;;;;;;1.55;0.90;;;;;;;;;;5115940;28;20381;-82
2021/08/08 08:55:40;;;;;;;1.20;0.60;;;;;;;;;;5116267;28;20052;-81
2021/08/08 08:58:07;;;;;;;2.58;0.65;;;;;;;;;;5119012;28;20093;-80
2021/08/08 09:00:34;;;;;;;1.90;0.70;;;;;;;;;;5114193;28;20050;-80
2021/08/08 09:03:02;;;;;;;1.75;0.90;;;;;;;;;;5093972;28;20147;-81
2021/08/08 09:05:30;;;;;;;2.58;1.10;;;;;;;;;;5092116;28;20485;-81
2021/08/08 09:07:57;;;;;;;3.30;0.90;;;;;;;;;;5093912;28;20051;-81
2021/08/08 09:10:26;;;;;;;2.08;0.80;;;;;;;;;;5093417;28;20059;-81
2021/08/08 09:12:57;;;;;;;2.75;0.82;;;;;;;;;;5105051;28;20051;-80
2021/08/08 09:15:35;;;;;;;2.35;1.00;;;;;;;;;;5114345;28;20051;-81
2021/08/08 09:18:13;;;;;;;1.55;0.80;;;;;;;;;;5114762;28;20051;-81
2021/08/08 09:20:41;;;;;;;3.17;0.80;;;;;;;;;;5114753;28;20051;-79
2021/08/08 09:23:08;;;;;;;1.00;0.68;;;;;;;;;;5114929;28;20056;-80
2021/08/08 09:25:37;;;;;;;1.85;0.75;;;;;;;;;;5114676;28;20189;-80
2021/08/08 09:28:09;;;;;;;1.80;0.77;;;;;;;;;;5118244;28;20046;-81
2021/08/08 09:30:40;;;;;;;1.90;0.70;;;;;;;;;;5118957;28;20047;-82
2021/08/08 09:33:09;;;;;;;1.70;0.70;;;;;;;;;;5118162;28;20044;-79
2021/08/08 09:35:38;;;;;;;2.53;0.90;;;;;;;;;;5117690;28;20051;-80
2021/08/08 09:38:08;;;;;;;1.90;0.90;;;;;;;;;;5118573;28;20050;-80
2021/08/08 09:40:38;;;;;;;3.65;0.98;;;;;;;;;;5118130;28;20083;-80
2021/08/08 09:43:06;;;;;;;1.70;0.88;;;;;;;;;;5118636;28;20055;-80
2021/08/08 09:45:38;;;;;;;3.70;0.80;;;;;;;;;;5117983;28;20424;-80
2021/08/08 09:48:06;;;;;;;3.55;0.80;;;;;;;;;;5118756;28;20054;-80
2021/08/08 09:50:33;;;;;;;1.88;0.88;;;;;;;;;;5118557;28;20055;-81
2021/08/08 09:53:02;;;;;;;1.50;0.82;;;;;;;;;;5118433;28;20480;-80
2021/08/08 09:55:33;;;;;;;2.50;0.90;;;;;;;;;;5118525;28;20446;-80
2021/08/08 09:58:02;;;;;;;2.17;0.80;;;;;;;;;;5119872;28;20058;-81
2021/08/08 10:00:31;;;;;;;1.73;0.80;;;;;;;;;;5120580;28;20052;-80
2021/08/08 10:02:58;;;;;;;1.48;0.70;;;;;;;;;;5101403;28;20056;-79
2021/08/08 10:05:26;;;;;;;1.60;0.70;;;;;;;;;;5098577;28;20108;-79
2021/08/08 10:07:53;;;;;;;1.45;0.70;;;;;;;;;;5098982;28;20097;-80
2021/08/08 10:10:21;;;;;;;1.42;0.75;;;;;;;;;;5102561;28;20055;-80
2021/08/08 10:13:29;;;;;;;2.30;0.85;;;;;;;;;;5112941;28;20054;-82
2021/08/08 10:15:57;;;;;;;1.45;0.73;;;;;;;;;;5111266;28;20066;-80
2021/08/08 10:18:27;;;;;;;1.73;0.60;;;;;;;;;;5132857;28;20043;-82
2021/08/08 10:20:55;;;;;;;1.20;0.73;;;;;;;;;;5139128;28;20038;-82
2021/08/08 10:23:22;;;;;;;2.17;0.90;;;;;;;;;;5139616;28;20054;-82
2021/08/08 10:25:54;;;;;;;1.60;0.60;;;;;;;;;;5139953;28;20039;-82
2021/08/08 10:28:23;;;;;;;1.58;0.73;;;;;;;;;;5140408;28;20040;-82
2021/08/08 10:30:50;;;;;;;1.13;0.60;;;;;;;;;;5140197;28;20032;-82
2021/08/08 10:33:17;;;;;;;1.95;0.90;;;;;;;;;;5140036;28;20063;-82
2021/08/08 10:35:45;;;;;;;1.75;0.80;;;;;;;;;;5139916;28;20027;-82
2021/08/08 10:38:13;;;;;;;1.30;0.70;;;;;;;;;;5140505;28;20046;-83
2021/08/08 10:40:41;;;;;;;1.77;0.70;;;;;;;;;;5140246;28;20031;-82
2021/08/08 10:43:21;;;;;;;1.10;0.57;;;;;;;;;;5140149;28;20048;-83
2021/08/08 10:45:49;;;;;;;1.45;0.70;;;;;;;;;;5139763;28;20032;-83
2021/08/08 10:48:16;;;;;;;3.80;0.75;;;;;;;;;;5140055;28;20031;-82
2021/08/08 10:50:45;;;;;;;1.98;0.60;;;;;;;;;;5140072;28;20039;-82
2021/08/08 10:53:22;;;;;;;1.42;0.60;;;;;;;;;;5139840;28;20031;-82
2021/08/08 10:55:50;;;;;;;1.73;0.70;;;;;;;;;;5139185;28;20040;-82
2021/08/08 10:58:17;;;;;;;2.20;0.70;;;;;;;;;;5139518;28;20039;-82
2021/08/08 11:00:45;;;;;;;2.72;0.80;;;;;;;;;;5139440;28;20031;-82
2021/08/08 11:03:15;;;;;;;1.25;0.70;;;;;;;;;;5099026;28;20039;-82
2021/08/08 11:05:42;;;;;;;1.33;0.70;;;;;;;;;;5098419;28;20039;-82
2021/08/08 11:08:10;;;;;;;1.85;0.80;;;;;;;;;;5099061;28;20044;-81
2021/08/08 11:10:40;;;;;;;2.38;0.68;;;;;;;;;;5098271;28;20048;-83
2021/08/08 11:13:23;;;;;;;1.30;0.50;;;;;;;;;;5125506;28;20059;-83
2021/08/08 11:15:50;;;;;;;1.45;0.70;;;;;;;;;;5136868;28;20046;-83
2021/08/08 11:18:18;;;;;;;3.28;1.10;;;;;;;;;;5139140;28;20042;-82
2021/08/08 11:20:46;;;;;;;2.17;1.27;;;;;;;;;;5139103;28;20028;-82
2021/08/08 11:23:13;;;;;;;4.90;1.20;;;;;;;;;;5137052;28;20043;-82
2021/08/08 11:25:42;;;;;;;1.75;0.70;;;;;;;;;;5134742;28;20048;-82
2021/08/08 11:28:11;;;;;;;1.15;0.40;;;;;;;;;;5135233;28;20044;-82
2021/08/08 11:30:40;;;;;;;1.73;0.60;;;;;;;;;;5134379;28;20059;-82
2021/08/08 11:33:07;;;;;;;2.50;0.73;;;;;;;;;;5134878;28;20039;-81
2021/08/08 11:35:35;;;;;;;1.75;0.68;;;;;;;;;;5134401;28;20044;-81
2021/08/08 11:38:02;;;;;;;2.33;0.95;;;;;;;;;;5129478;28;20048;-82
2021/08/08 11:40:32;;;;;;;2.22;1.25;;;;;;;;;;5119078;28;20047;-80
2021/08/08 11:43:01;;;;;;;1.25;0.55;;;;;;;;;;5117638;28;20051;-80
2021/08/08 11:45:35;;;;;;;1.30;0.50;;;;;;;;;;5115877;28;20478;-80
2021/08/08 11:48:02;;;;;;;1.15;0.60;;;;;;;;;;5117268;28;20043;-80
2021/08/08 11:50:29;;;;;;;1.88;0.77;;;;;;;;;;5116020;28;20055;-80
2021/08/08 11:53:00;;;;;;;4.97;2.10;;;;;;;;;;5116071;28;20079;-80
2021/08/08 11:55:30;;;;;;;2.15;0.70;;;;;;;;;;5115511;28;20047;-80
2021/08/08 11:58:04;;;;;;;2.17;0.80;;;;;;;;;;5116205;28;20073;-80
2021/08/08 12:00:32;;;;;;;1.25;0.73;;;;;;;;;;5121044;28;20051;-80
2021/08/08 12:02:59;;;;;;;1.15;0.70;;;;;;;;;;5103159;28;20056;-80
2021/08/08 12:05:26;;;;;;;2.20;1.00;;;;;;;;;;5100621;28;20044;-81
2021/08/08 12:07:53;;;;;;;2.63;0.80;;;;;;;;;;5102136;28;20412;-79
2021/08/08 12:10:29;;;;;;;1.42;0.60;;;;;;;;;;5097664;28;20055;-79
2021/08/08 12:12:56;;;;;;;1.95;0.40;;;;;;;;;;5108682;28;20051;-79
2021/08/08 12:15:34;;;;;;;1.55;0.75;;;;;;;;;;5116007;28;20054;-80
2021/08/08 12:18:01;;;;;;;4.97;2.72;;;;;;;;;;5116920;28;20051;-81
2021/08/08 12:20:36;;;;;;;2.72;0.80;;;;;;;;;;5116622;28;20062;-80
2021/08/08 12:23:05;;;;;;;2.65;0.90;;;;;;;;;;5116352;28;20048;-82
2021/08/08 12:25:33;;;;;;;2.55;0.70;;;;;;;;;;5117491;28;20039;-80
2021/08/08 12:28:00;;;;;;;2.08;0.80;;;;;;;;;;5116736;28;20043;-80
2021/08/08 12:30:28;;;;;;;2.08;0.70;;;;;;;;;;5116605;28;20047;-79
2021/08/08 12:33:05;;;;;;;2.58;1.35;;;;;;;;;;5116089;28;20100;-79
2021/08/08 12:35:36;;;;;;;2.80;1.00;;;;;;;;;;5118357;28;20059;-81
2021/08/08 12:38:07;;;;;;;2.40;0.80;;;;;;;;;;5137523;28;20095;-80
2021/08/08 12:40:45;;;;;;;1.73;0.70;;;;;;;;;;5132020;28;20062;-82
2021/08/08 12:43:16;;;;;;;2.45;0.93;;;;;;;;;;5128674;28;20062;-82
2021/08/08 12:45:43;;;;;;;1.13;0.70;;;;;;;;;;5121751;28;20051;-82
2021/08/08 12:48:10;;;;;;;2.55;1.00;;;;;;;;;;5120349;28;20054;-83
2021/08/08 12:50:42;;;;;;;1.52;0.85;;;;;;;;;;5120915;28;20043;-82
2021/08/08 12:53:09;;;;;;;2.10;0.60;;;;;;;;;;5120913;28;20048;-81
2021/08/08 12:55:37;;;;;;;2.72;0.80;;;;;;;;;;5125391;28;20055;-82
2021/08/08 12:58:06;;;;;;;1.40;0.73;;;;;;;;;;5127936;28;20112;-81
2021/08/08 13:00:33;;;;;;;2.78;1.00;;;;;;;;;;5128012;28;20047;-81
2021/08/08 13:03:00;;;;;;;1.98;0.80;;;;;;;;;;5109576;28;20048;-80
2021/08/08 13:05:27;;;;;;;2.08;0.80;;;;;;;;;;5107477;28;20044;-81
2021/08/08 13:07:54;;;;;;;2.85;1.17;;;;;;;;;;5105973;28;20069;-81
2021/08/08 13:10:21;;;;;;;1.77;0.70;;;;;;;;;;5107156;28;20048;-80
2021/08/08 13:12:52;;;;;;;2.65;0.85;;;;;;;;;;5105302;28;20454;-82
2021/08/08 13:15:22;;;;;;;4.75;1.00;;;;;;;;;;5104913;28;20052;-81
2021/08/08 13:17:49;;;;;;;1.63;0.90;;;;;;;;;;5105337;28;20082;-82
2021/08/08 13:20:21;;;;;;;2.50;1.00;;;;;;;;;;5107522;28;20443;-82
2021/08/08 13:22:50;;;;;;;1.77;0.80;;;;;;;;;;5107033;28;20066;-82
2021/08/08 13:25:17;;;;;;;1.48;0.75;;;;;;;;;;5105800;28;20044;-81
2021/08/08 13:27:44;;;;;;;1.73;0.80;;;;;;;;;;5108378;28;20477;-81
2021/08/08 13:30:12;;;;;;;2.10;0.93;;;;;;;;;;5110338;28;20051;-81
2021/08/08 13:32:41;;;;;;;1.95;0.82;;;;;;;;;;5112876;28;20635;-82
2021/08/08 13:35:09;;;;;;;2.92;0.90;;;;;;;;;;5110473;28;20452;-81
2021/08/08 13:37:36;;;;;;;2.15;0.80;;;;;;;;;;5111998;28;20055;-81
2021/08/08 13:40:08;;;;;;;2.47;0.80;;;;;;;;;;5114275;28;20052;-80
2021/08/08 13:42:35;;;;;;;2.67;0.85;;;;;;;;;;5110405;28;20136;-82
2021/08/08 13:45:02;;;;;;;2.33;1.10;;;;;;;;;;5104175;28;20493;-82
2021/08/08 13:47:34;;;;;;;3.80;0.90;;;;;;;;;;5104420;28;20047;-81
2021/08/08 13:50:02;;;;;;;3.33;1.17;;;;;;;;;;5108185;28;20047;-82
2021/08/08 13:52:30;;;;;;;2.97;0.95;;;;;;;;;;5104318;28;20048;-81
2021/08/08 13:54:57;;;;;;;1.95;0.80;;;;;;;;;;5104039;28;20519;-82
2021/08/08 13:57:23;;;;;;;1.83;0.80;;;;;;;;;;5103837;28;20051;-81
2021/08/08 13:59:51;;;;;;;1.23;0.77;;;;;;;;;;5103801;28;20535;-82
2021/08/08 14:02:18;;;;;;;2.15;0.73;;;;;;;;;;5103956;28;20066;-82
2021/08/08 14:04:45;;;;;;;2.35;0.90;;;;;;;;;;5105743;28;20055;-82
2021/08/08 14:07:13;;;;;;;2.33;1.13;;;;;;;;;;5109715;28;20048;-81
2021/08/08 14:09:40;;;;;;;2.30;0.85;;;;;;;;;;5105090;28;20055;-82
2021/08/08 14:12:07;;;;;;;2.90;0.80;;;;;;;;;;5102198;22;20055;-76
2021/08/08 14:14:34;;;;;;;2.90;0.98;;;;;;;;;;5093871;28;20047;-76
2021/08/08 14:17:01;;;;;;;2.38;0.80;;;;;;;;;;5094320;28;20052;-76
2021/08/08 14:19:28;;;;;;;2.20;0.93;;;;;;;;;;5094248;28;20048;-76
2021/08/08 14:21:55;;;;;;;1.88;0.88;;;;;;;;;;5094330;28;20044;-76
2021/08/08 14:24:23;;;;;;;1.48;0.70;;;;;;;;;;5094532;28;20443;-76
2021/08/08 14:26:50;;;;;;;1.98;0.93;;;;;;;;;;5093312;28;20051;-75
2021/08/08 14:29:17;;;;;;;2.45;1.00;;;;;;;;;;5094470;28;20058;-76
2021/08/08 14:31:44;;;;;;;2.70;1.02;;;;;;;;;;5094115;28;20101;-76
2021/08/08 14:34:11;;;;;;;1.83;0.80;;;;;;;;;;5094073;28;20125;-76
2021/08/08 14:36:38;;;;;;;3.25;1.30;;;;;;;;;;5093385;28;20525;-76
2021/08/08 14:39:05;;;;;;;2.92;1.05;;;;;;;;;;5094092;28;20075;-77
2021/08/08 14:41:33;;;;;;;5.07;1.20;;;;;;;;;;5093849;28;20051;-76
2021/08/08 14:44:00;;;;;;;3.85;1.73;;;;;;;;;;5093982;28;20475;-77
2021/08/08 14:46:27;;;;;;;7.88;5.47;;;;;;;;;;5092750;28;20051;-77
2021/08/08 14:48:54;;;;;;;4.10;2.30;;;;;;;;;;5093542;28;20048;-77